LPAZ/SMA METAR and TAF weather

Enter ICAO airport designator
Station Type Date Time Source
LPAZ METAR 2019/08/20 09:30 UTC NOAA

LPAZ 200930Z 01005KT 340V050 9999 FEW004 SCT019 BKN029 23/22 Q1019


Station Type Date Time Source
LPAZ Decoded METAR 2019/08/20 09:30 UTC NOAA

Santa Maria Acores , Portugal (LPAZ) 36-58N 025-10W 100M
Aug 20, 2019 - 05:30 AM EDT / 2019.08.20 0930 UTC
Wind: from the N (010 degrees) at 6 MPH (5 KT) (direction variable):0
Visibility: greater than 7 mile(s):0
Sky conditions: mostly cloudy
Temperature: 73 F (23 C)
Dew Point: 71 F (22 C)
Relative Humidity: 94%
Pressure (altimeter): 30.09 in. Hg (1019 hPa)
ob: LPAZ 200930Z 01005KT 340V050 9999 FEW004 SCT019 BKN029 23/22 Q1019
cycle: 9

Station Type Date Time Source
LPAZ TAF 2019/08/20 06:18 UTC NOAA

TAF TAF LPAZ 200500Z 2006/2112 VRB05KT 9999 SCT006 SCT012
TEMPO 2006/2112 5000 RADZ BR SCT004 BKN008 PROB40
TEMPO 2006/2012 1200 +RADZ BR SCT001 BKN003 FEW018CB
BECMG 2018/2021 02008KT

Example: see airport list